METAR Data
IDs: Format: Raw Decoded Include TAF

Data at: 1159 UTC 23 Sep 2018

KCWF 231147Z 00000KT 10SM SCT022 24/24 A2991
KCWF 231100Z 00000KT 10SM SCT090 24/24 A2990
KCWF 231035Z AUTO 10004KT 10SM RA CLR 24/24 A2990 RMK AO2 T02420240
KCWF 231015Z AUTO 09004KT 10SM RA SCT090 24/24 A2989 RMK AO2 T02410238
KCWF 230955Z AUTO 00000KT 10SM CLR 24/24 A2989 RMK AO2 T02410237
KCWF 230935Z AUTO 00000KT 10SM CLR 24/24 A2990 RMK AO2 T02420238
KCWF 230915Z AUTO 00000KT 10SM CLR 24/24 A2990 RMK AO2 T02400237
KCWF 230850Z AUTO 00000KT 10SM CLR 24/24 A2990 RMK AO2 T02400236
KCWF 230835Z AUTO 09003KT 10SM CLR 24/24 A2991 RMK AO2 T02400236
KCWF 230815Z AUTO 10003KT 10SM CLR 24/23 A2991 RMK AO2 T02400235
KCWF 230755Z AUTO 00000KT 10SM CLR 24/23 A2992 RMK AO2 T02400235
KCWF 230735Z AUTO 00000KT 10SM SCT021 24/24 A2992 RMK AO2 LTG DSNT W T02400236
KCWF 230715Z AUTO 08003KT 10SM SCT004 SCT023 BKN070 24/23 A2992 RMK AO2 T02380235
KCWF 230655Z AUTO 09003KT 10SM SCT004 SCT075 BKN095 24/23 A2993 RMK AO2 T02380235
KCWF 230635Z AUTO 00000KT 10SM SCT075 SCT085 24/23 A2993 RMK AO2 T02370234
KCWF 230615Z AUTO 00000KT 10SM BKN075 24/23 A2994 RMK AO2 T02400235
KCWF 230555Z AUTO 09003KT 10SM SCT006 24/23 A2994 RMK AO2 T02400235 10255 20240 402830238
KCWF 230535Z AUTO 10004KT 10SM BKN006 24/24 A2994 RMK AO2 T02410237
KCWF 230515Z AUTO 10005KT 10SM OVC004 24/24 A2994 RMK AO2 T02420238
KCWF 230455Z AUTO 10006KT 10SM SCT004 24/24 A2994 RMK AO2 T02430240
KCWF 230435Z AUTO 11005KT 10SM SCT060 24/24 A2994 RMK AO2 T02450241
KCWF 230415Z AUTO 10004KT 10SM BKN060 24/24 A2994 RMK AO2 T02450242
KCWF 230355Z AUTO 12003KT 10SM CLR 24/24 A2994 RMK AO2 T02450241
KCWF 230335Z AUTO 00000KT 10SM CLR 24/24 A2995 RMK AO2 T02450241
KCWF 230315Z AUTO 12003KT 10SM CLR 25/24 A2994 RMK AO2 T02460242
KCWF 230255Z 12004KT 10SM SKC 25/24 A2994 RMK LAST
KCWF 230145Z 12004KT 10SM SKC 25/24 A2993
KCWF 222355Z 00000KT 10SM SKC 25/25 A2993
KCWF 222255Z 09004KT 10SM SCT020 BKN120 26/24 A2993
KCWF 222155Z 14005KT 10SM SCT016 BKN050 26/24 A2994
KCWF 222050Z AUTO CALMKT 10SMSM SCT020 BKN120 26/23 A2992
KCWF 221950Z AUTO CALMKT 10SMSM SCT009 26/24 A2995
KCWF 221847Z 00000KT 10SM SCT060 BKN090 24/23 A2997 RMK RAE47
KCWF 221747Z 22006KT 7SM VCSH SCT007 BKN045 OVC060 24/24 A3000 RMK SHRA E MOV NE RAB47
KCWF 221647Z 24010KT 1SM +RA VCSH BKN014 OVC022 25/23 A3002 RMK SHRA OHD MOV NE RAB47
KCWF 221547Z 12007G14KT 10SM SCT031 BKN049 28/24 A3000
KCWF 221450Z 00000KT 10SM SCT070 BKN080 26/23 A2999
KCWF 221350Z 11005KT 10SM SCT060 BKN080 24/23 A2997
KCWF 221247Z 15009KT 10SM BKN050 25/24 A2998
KCWF 221035Z AUTO 08004KT 10SM SCT015 24/24 A2995 RMK AO2 LTG DSNT E T02450240
KCWF 221015Z AUTO 06003KT 10SM SCT021 25/24 A2995 RMK AO2 T02460238
KCWF 220955Z AUTO 00000KT 10SM SCT021 25/24 A2995 RMK AO2 LTG DSNT S T02480240
KCWF 220935Z AUTO 00000KT 10SM SCT023 SCT028 25/24 A2995 RMK AO2 T02480241
KCWF 220915Z AUTO 00000KT 10SM SCT027 SCT033 25/24 A2995 RMK AO2 LTG DSNT S T02470240
KCWF 220855Z AUTO 12004KT 10SM -RA SCT027 SCT043 SCT055 24/24 A2996 RMK AO2 P0001 60001 T02450237
KCWF 220835Z AUTO 17003KT 10SM -VCTSRA SCT020 SCT038 SCT055 25/23 A2995 RMK AO2 T02500233
KCWF 220815Z AUTO 16004KT 10SM SCT018 BKN023 BKN030 25/24 A2996 RMK AO2 T02530235
KCWF 220755Z AUTO 14005KT 10SM SCT018 BKN024 BKN030 25/25 A2996 RMK AO2 T02510246
KCWF 220735Z AUTO 12003KT 10SM SCT021 SCT029 SCT043 25/24 A2996 RMK AO2 LTG DSNT W AND NW T02500245
KCWF 220715Z AUTO 10004KT 10SM SCT021 SCT027 BKN048 25/24 A2996 RMK AO2 T02510245
KCWF 220655Z AUTO 09003KT 10SM VCTS SCT021 SCT026 SCT031 25/24 A2997 RMK AO2 LTG DSNT S T02510245
KCWF 220635Z AUTO 09004KT 10SM SCT023 SCT031 SCT038 25/24 A2997 RMK AO2 LTG DSNT S THRU W T02520245
KCWF 220615Z AUTO 07004KT 10SM VCTS SCT021 25/24 A2999 RMK AO2 LTG DSNT S AND SW T02520245
KCWF 220555Z AUTO 00000KT 10SM SCT021 25/24 A2999 RMK AO2 LTG DSNT SW T02520245 10278 20250 403130231
KCWF 220535Z AUTO 09004KT 10SM CLR 25/24 A2999 RMK AO2 LTG DSNT S T02520244
KCWF 220515Z AUTO 12005KT 10SM SCT021 25/24 A2999 RMK AO2 T02510243
KCWF 220455Z AUTO 12003KT 10SM CLR 25/24 A3000 RMK AO2 T02500240
KCWF 220435Z AUTO 10005KT 10SM CLR 25/24 A2999 RMK AO2 T02500239
KCWF 220415Z AUTO 10006KT 10SM CLR 25/24 A2999 RMK AO2 LTG DSNT SE T02510238
KCWF 220355Z AUTO 10006KT 10SM CLR 25/24 A2999 RMK AO2 T02530238
KCWF 220335Z AUTO 11006KT 10SM CLR 25/24 A2999 RMK AO2 T02510240
KCWF 220315Z AUTO 10004KT 10SM CLR 25/24 A2999 RMK AO2 LTG DSNT SE T02500240